Terminal Aerodrome Forecast
Issued by NWS

Home | Current Version | Previous Version | Text Only | Print | Product List | Glossary On
Versions: 1 2 3 4 5 6 7 8 9 10 11 12 13 14 15 16
947
FTUS43 KDVN 242253 AAC
TAFBRL
TAF AMD
KBRL 242253Z 2423/2518 18007KT P6SM SCT050
     FM250600 16006KT 5SM BR BKN040
     FM251600 17012G18KT P6SM VCTS BKN040CB=

USA.gov is the U.S. government's official web portal to all federal, state and local government web resources and services.